Estación Meteorológica Peña el Pijo (Robertgarden) [ 12/10/18 12:21:30 CET ]

Fecha Hora Presion(HPa) Temp (°C) Humedad % Rocio (°C) Viento ( m/s) Direccion Lluvia 1Hora(mm) Lluvia 24H(mm) LLuvia Total(mm)
2018-Aug-01 01:01:48 1012.600 18.4 44 5.8         269.36
2018-Aug-01 02:01:47 1012.600 17.1 46 5.3         269.36
2018-Aug-01 03:01:27 1012.200 16.1 49 5.4         269.36
2018-Aug-01 04:01:27 1011.700 15.3 51 5.2         269.36
2018-Aug-01 05:01:30 1011.700 14.3 53 4.8         269.36
2018-Aug-01 06:01:30 1011.700 13.5 56 4.9         269.36
2018-Aug-01 07:01:52 1011.900 12.8 58 4.7         269.36
2018-Aug-01 08:02:08 1012.200 13.4 61 6.0         269.36
2018-Aug-01 09:01:44 1012.100 19.9 50 9.2         269.36
2018-Aug-01 10:01:39 1012.400 28.1 35 11.1         269.36
2018-Aug-01 11:01:55 1012.300 33.3 25 10.4         269.36
2018-Aug-01 12:01:48 1012.800 33.4 21 8.0         269.36
2018-Aug-01 13:01:43 1012.400 34.5 19 7.3         269.36
2018-Aug-01 14:01:50 1012.300 34.9 19 7.6         269.36
2018-Aug-01 15:01:56 1012.300 35.5 19 8.2         269.36
2018-Aug-01 16:01:51 1012.100 36.9 17 7.3         269.36
2018-Aug-01 17:01:40 1012.000 35.5 18 7.2 2.0 SSE     269.36
2018-Aug-01 18:01:51 1012.100 34.8 20 8.5         269.36
2018-Aug-01 19:01:29 1012.200 32.9 22 8.2         269.36
2018-Aug-01 20:01:30 1012.300 30.5 23 6.8 1.2 S     269.36
2018-Aug-01 21:01:52 1012.500 27.3 26 5.9         269.36
2018-Aug-01 22:01:41 1013.100 24.1 30 5.5         269.36
2018-Aug-01 23:01:53 1013.500 21.6 39 7.0         269.36

Temperatura Máxima:36°    Temperatura Mínima:12°
Presión Máxima:1013.500 Hpa    Presión Mínima:1011.700 Hpa


Volver